sensor_id;sensor_type;location;lat;lon;timestamp;temperature;humidity
70076;DHT22;63241;51.056;3.698;2022-09-21T00:00:16;10.00;95.50
70076;DHT22;63241;51.056;3.698;2022-09-21T00:03:06;10.00;95.50
70076;DHT22;63241;51.056;3.698;2022-09-21T00:06:08;9.90;95.60
70076;DHT22;63241;51.056;3.698;2022-09-21T00:08:52;9.90;95.60
70076;DHT22;63241;51.056;3.698;2022-09-21T00:11:41;9.90;95.70
70076;DHT22;63241;51.056;3.698;2022-09-21T00:14:29;9.90;95.70
70076;DHT22;63241;51.056;3.698;2022-09-21T00:17:17;9.90;95.90
70076;DHT22;63241;51.056;3.698;2022-09-21T00:20:06;9.90;95.90
70076;DHT22;63241;51.056;3.698;2022-09-21T00:22:57;9.90;96.00
70076;DHT22;63241;51.056;3.698;2022-09-21T00:25:46;9.90;96.00
70076;DHT22;63241;51.056;3.698;2022-09-21T00:28:34;9.90;96.00
70076;DHT22;63241;51.056;3.698;2022-09-21T00:34:31;9.80;96.00
70076;DHT22;63241;51.056;3.698;2022-09-21T00:37:20;9.80;96.10
70076;DHT22;63241;51.056;3.698;2022-09-21T00:40:12;9.80;96.30
70076;DHT22;63241;51.056;3.698;2022-09-21T00:43:15;9.90;96.40
70076;DHT22;63241;51.056;3.698;2022-09-21T00:46:28;9.90;96.40
70076;DHT22;63241;51.056;3.698;2022-09-21T00:49:16;9.90;96.30
70076;DHT22;63241;51.056;3.698;2022-09-21T00:52:06;9.90;96.30
70076;DHT22;63241;51.056;3.698;2022-09-21T00:54:59;9.80;96.20
70076;DHT22;63241;51.056;3.698;2022-09-21T00:58:08;9.80;96.50
70076;DHT22;63241;51.056;3.698;2022-09-21T01:00:56;9.70;96.10
70076;DHT22;63241;51.056;3.698;2022-09-21T01:03:45;9.70;95.90
70076;DHT22;63241;51.056;3.698;2022-09-21T01:06:34;9.60;96.00
70076;DHT22;63241;51.056;3.698;2022-09-21T01:13:11;9.50;96.30
70076;DHT22;63241;51.056;3.698;2022-09-21T01:16:06;9.50;96.40
70076;DHT22;63241;51.056;3.698;2022-09-21T01:19:26;9.40;96.40
70076;DHT22;63241;51.056;3.698;2022-09-21T01:29:17;9.30;96.90
70076;DHT22;63241;51.056;3.698;2022-09-21T01:32:16;9.30;96.90
70076;DHT22;63241;51.056;3.698;2022-09-21T01:35:22;9.20;96.80
70076;DHT22;63241;51.056;3.698;2022-09-21T01:38:18;9.20;96.90
70076;DHT22;63241;51.056;3.698;2022-09-21T01:41:04;9.10;97.00
70076;DHT22;63241;51.056;3.698;2022-09-21T01:43:56;9.10;97.10
70076;DHT22;63241;51.056;3.698;2022-09-21T01:46:46;9.10;97.20
70076;DHT22;63241;51.056;3.698;2022-09-21T01:49:16;9.10;97.30
70076;DHT22;63241;51.056;3.698;2022-09-21T01:52:09;9.10;97.30
70076;DHT22;63241;51.056;3.698;2022-09-21T01:55:09;9.10;97.50
70076;DHT22;63241;51.056;3.698;2022-09-21T01:58:15;9.10;97.50
70076;DHT22;63241;51.056;3.698;2022-09-21T02:00:59;9.00;97.40
70076;DHT22;63241;51.056;3.698;2022-09-21T02:03:52;9.00;97.30
70076;DHT22;63241;51.056;3.698;2022-09-21T02:06:42;9.00;97.40
70076;DHT22;63241;51.056;3.698;2022-09-21T02:09:33;9.00;97.50
70076;DHT22;63241;51.056;3.698;2022-09-21T02:12:23;9.00;97.50
70076;DHT22;63241;51.056;3.698;2022-09-21T02:15:13;8.90;97.40
70076;DHT22;63241;51.056;3.698;2022-09-21T02:21:02;8.80;97.40
70076;DHT22;63241;51.056;3.698;2022-09-21T02:24:04;8.80;97.40
70076;DHT22;63241;51.056;3.698;2022-09-21T02:30:18;8.80;97.40
70076;DHT22;63241;51.056;3.698;2022-09-21T02:33:17;8.80;97.50
70076;DHT22;63241;51.056;3.698;2022-09-21T02:36:29;8.80;97.60
70076;DHT22;63241;51.056;3.698;2022-09-21T02:39:16;8.80;97.90
70076;DHT22;63241;51.056;3.698;2022-09-21T02:42:10;8.80;98.10
70076;DHT22;63241;51.056;3.698;2022-09-21T02:45:02;8.70;98.00
70076;DHT22;63241;51.056;3.698;2022-09-21T02:47:56;8.70;98.00
70076;DHT22;63241;51.056;3.698;2022-09-21T02:50:49;8.70;97.90
70076;DHT22;63241;51.056;3.698;2022-09-21T02:53:38;8.70;97.90
70076;DHT22;63241;51.056;3.698;2022-09-21T02:59:39;8.60;98.00
70076;DHT22;63241;51.056;3.698;2022-09-21T03:02:39;8.60;98.00
70076;DHT22;63241;51.056;3.698;2022-09-21T03:05:28;8.60;98.00
70076;DHT22;63241;51.056;3.698;2022-09-21T03:08:18;8.60;98.20
70076;DHT22;63241;51.056;3.698;2022-09-21T03:11:07;8.60;98.20
70076;DHT22;63241;51.056;3.698;2022-09-21T03:13:56;8.60;98.10
70076;DHT22;63241;51.056;3.698;2022-09-21T03:16:48;8.60;98.10
70076;DHT22;63241;51.056;3.698;2022-09-21T03:19:37;8.50;98.00
70076;DHT22;63241;51.056;3.698;2022-09-21T03:22:26;8.50;98.00
70076;DHT22;63241;51.056;3.698;2022-09-21T03:25:14;8.50;98.00
70076;DHT22;63241;51.056;3.698;2022-09-21T03:28:04;8.50;98.00
70076;DHT22;63241;51.056;3.698;2022-09-21T03:30:52;8.50;98.10
70076;DHT22;63241;51.056;3.698;2022-09-21T03:33:21;8.50;98.10
70076;DHT22;63241;51.056;3.698;2022-09-21T03:36:11;8.50;98.20
70076;DHT22;63241;51.056;3.698;2022-09-21T03:38:59;8.50;98.10
70076;DHT22;63241;51.056;3.698;2022-09-21T03:41:48;8.50;98.20
70076;DHT22;63241;51.056;3.698;2022-09-21T03:44:37;8.50;98.40
70076;DHT22;63241;51.056;3.698;2022-09-21T03:47:25;8.50;98.40
70076;DHT22;63241;51.056;3.698;2022-09-21T03:50:13;8.50;98.40
70076;DHT22;63241;51.056;3.698;2022-09-21T03:53:01;8.50;98.50
70076;DHT22;63241;51.056;3.698;2022-09-21T03:55:50;8.50;98.40
70076;DHT22;63241;51.056;3.698;2022-09-21T04:01:06;8.50;98.50
70076;DHT22;63241;51.056;3.698;2022-09-21T04:03:53;8.50;98.60
70076;DHT22;63241;51.056;3.698;2022-09-21T04:06:44;8.50;98.70
70076;DHT22;63241;51.056;3.698;2022-09-21T04:09:33;8.50;98.70
70076;DHT22;63241;51.056;3.698;2022-09-21T04:12:22;8.50;98.60
70076;DHT22;63241;51.056;3.698;2022-09-21T04:15:16;8.50;98.60
70076;DHT22;63241;51.056;3.698;2022-09-21T04:18:09;8.50;98.60
70076;DHT22;63241;51.056;3.698;2022-09-21T04:21:00;8.50;98.60
70076;DHT22;63241;51.056;3.698;2022-09-21T04:23:50;8.50;99.10
70076;DHT22;63241;51.056;3.698;2022-09-21T04:26:41;8.50;99.30
70076;DHT22;63241;51.056;3.698;2022-09-21T04:29:30;8.50;99.10
70076;DHT22;63241;51.056;3.698;2022-09-21T04:32:17;8.50;99.00
70076;DHT22;63241;51.056;3.698;2022-09-21T04:35:06;8.50;98.90
70076;DHT22;63241;51.056;3.698;2022-09-21T04:37:58;8.50;98.90
70076;DHT22;63241;51.056;3.698;2022-09-21T04:40:53;8.50;98.80
70076;DHT22;63241;51.056;3.698;2022-09-21T04:43:37;8.40;98.70
70076;DHT22;63241;51.056;3.698;2022-09-21T04:46:27;8.40;98.60
70076;DHT22;63241;51.056;3.698;2022-09-21T04:49:17;8.40;98.60
70076;DHT22;63241;51.056;3.698;2022-09-21T04:52:06;8.40;98.50
70076;DHT22;63241;51.056;3.698;2022-09-21T04:54:55;8.40;98.60
70076;DHT22;63241;51.056;3.698;2022-09-21T04:57:43;8.40;99.00
70076;DHT22;63241;51.056;3.698;2022-09-21T05:00:32;8.40;98.90
70076;DHT22;63241;51.056;3.698;2022-09-21T05:03:19;8.30;98.80
70076;DHT22;63241;51.056;3.698;2022-09-21T05:06:07;8.30;98.80
70076;DHT22;63241;51.056;3.698;2022-09-21T05:08:56;8.30;98.70
70076;DHT22;63241;51.056;3.698;2022-09-21T05:12:03;8.30;98.80
70076;DHT22;63241;51.056;3.698;2022-09-21T05:14:32;8.30;98.80
70076;DHT22;63241;51.056;3.698;2022-09-21T05:17:20;8.30;98.90
70076;DHT22;63241;51.056;3.698;2022-09-21T05:20:09;8.30;98.80
70076;DHT22;63241;51.056;3.698;2022-09-21T05:23:00;8.30;98.80
70076;DHT22;63241;51.056;3.698;2022-09-21T05:25:47;8.30;98.80
70076;DHT22;63241;51.056;3.698;2022-09-21T05:28:36;8.30;98.80
70076;DHT22;63241;51.056;3.698;2022-09-21T05:31:47;8.30;98.80
70076;DHT22;63241;51.056;3.698;2022-09-21T05:38:19;8.30;98.90
70076;DHT22;63241;51.056;3.698;2022-09-21T05:41:08;8.30;98.80
70076;DHT22;63241;51.056;3.698;2022-09-21T05:43:56;8.30;98.90
70076;DHT22;63241;51.056;3.698;2022-09-21T05:47:04;8.40;99.40
70076;DHT22;63241;51.056;3.698;2022-09-21T05:50:16;8.40;99.10
70076;DHT22;63241;51.056;3.698;2022-09-21T05:56:31;8.60;99.70
70076;DHT22;63241;51.056;3.698;2022-09-21T05:59:25;8.70;99.70
70076;DHT22;63241;51.056;3.698;2022-09-21T06:02:56;8.80;99.70
70076;DHT22;63241;51.056;3.698;2022-09-21T06:04:57;8.90;99.70
70076;DHT22;63241;51.056;3.698;2022-09-21T06:07:47;8.90;99.70
70076;DHT22;63241;51.056;3.698;2022-09-21T06:10:35;9.10;99.80
70076;DHT22;63241;51.056;3.698;2022-09-21T06:13:26;9.10;99.80
70076;DHT22;63241;51.056;3.698;2022-09-21T06:15:53;9.20;99.90
70076;DHT22;63241;51.056;3.698;2022-09-21T06:18:41;9.30;99.80
70076;DHT22;63241;51.056;3.698;2022-09-21T06:21:30;9.40;99.70
70076;DHT22;63241;51.056;3.698;2022-09-21T06:24:21;9.50;99.90
70076;DHT22;63241;51.056;3.698;2022-09-21T06:27:11;9.60;99.90
70076;DHT22;63241;51.056;3.698;2022-09-21T06:30:03;9.70;99.80
70076;DHT22;63241;51.056;3.698;2022-09-21T06:33:10;9.80;99.80
70076;DHT22;63241;51.056;3.698;2022-09-21T06:35:59;9.90;99.90
70076;DHT22;63241;51.056;3.698;2022-09-21T06:38:47;10.10;99.80
70076;DHT22;63241;51.056;3.698;2022-09-21T06:41:36;10.20;99.80
70076;DHT22;63241;51.056;3.698;2022-09-21T06:44:23;10.30;99.90
70076;DHT22;63241;51.056;3.698;2022-09-21T06:47:13;10.40;99.90
70076;DHT22;63241;51.056;3.698;2022-09-21T06:50:01;10.50;99.90
70076;DHT22;63241;51.056;3.698;2022-09-21T06:52:33;10.60;99.90
70076;DHT22;63241;51.056;3.698;2022-09-21T06:55:26;10.80;99.90
70076;DHT22;63241;51.056;3.698;2022-09-21T06:58:14;11.00;99.90
70076;DHT22;63241;51.056;3.698;2022-09-21T07:01:10;11.10;99.90
70076;DHT22;63241;51.056;3.698;2022-09-21T07:03:59;11.20;99.70
70076;DHT22;63241;51.056;3.698;2022-09-21T07:06:53;11.40;99.90
70076;DHT22;63241;51.056;3.698;2022-09-21T07:09:45;12.40;99.90
70076;DHT22;63241;51.056;3.698;2022-09-21T07:16:17;16.40;97.60
70076;DHT22;63241;51.056;3.698;2022-09-21T07:19:04;19.40;91.90
70076;DHT22;63241;51.056;3.698;2022-09-21T07:21:55;22.40;80.50
70076;DHT22;63241;51.056;3.698;2022-09-21T07:24:43;24.90;68.80
70076;DHT22;63241;51.056;3.698;2022-09-21T07:27:32;27.50;57.80
70076;DHT22;63241;51.056;3.698;2022-09-21T07:30:23;29.90;51.40
70076;DHT22;63241;51.056;3.698;2022-09-21T07:32:50;31.90;43.70
70076;DHT22;63241;51.056;3.698;2022-09-21T07:35:38;33.30;39.50
70076;DHT22;63241;51.056;3.698;2022-09-21T07:38:26;34.70;35.30
70076;DHT22;63241;51.056;3.698;2022-09-21T07:41:14;35.90;33.10
70076;DHT22;63241;51.056;3.698;2022-09-21T07:44:03;36.90;30.50
70076;DHT22;63241;51.056;3.698;2022-09-21T07:46:51;37.80;28.70
70076;DHT22;63241;51.056;3.698;2022-09-21T07:49:41;38.50;27.60
70076;DHT22;63241;51.056;3.698;2022-09-21T07:52:29;39.20;25.90
70076;DHT22;63241;51.056;3.698;2022-09-21T07:55:17;39.70;25.90
70076;DHT22;63241;51.056;3.698;2022-09-21T07:58:05;40.40;25.10
70076;DHT22;63241;51.056;3.698;2022-09-21T08:01:10;41.10;23.80
70076;DHT22;63241;51.056;3.698;2022-09-21T08:04:03;41.80;23.00
70076;DHT22;63241;51.056;3.698;2022-09-21T08:06:51;42.40;22.50
70076;DHT22;63241;51.056;3.698;2022-09-21T08:09:39;42.90;21.50
70076;DHT22;63241;51.056;3.698;2022-09-21T08:12:26;43.10;20.80
70076;DHT22;63241;51.056;3.698;2022-09-21T08:15:14;43.60;20.10
70076;DHT22;63241;51.056;3.698;2022-09-21T08:18:03;43.70;20.00
70076;DHT22;63241;51.056;3.698;2022-09-21T08:24:03;43.60;18.90
70076;DHT22;63241;51.056;3.698;2022-09-21T08:26:50;44.00;18.80
70076;DHT22;63241;51.056;3.698;2022-09-21T08:29:38;44.20;17.70
70076;DHT22;63241;51.056;3.698;2022-09-21T08:32:24;44.10;17.70
70076;DHT22;63241;51.056;3.698;2022-09-21T08:35:11;44.40;17.40
70076;DHT22;63241;51.056;3.698;2022-09-21T08:37:59;44.50;17.10
70076;DHT22;63241;51.056;3.698;2022-09-21T08:40:47;44.90;17.50
70076;DHT22;63241;51.056;3.698;2022-09-21T08:44:02;44.60;17.10
70076;DHT22;63241;51.056;3.698;2022-09-21T08:47:09;44.30;17.10
70076;DHT22;63241;51.056;3.698;2022-09-21T08:49:56;43.80;16.90
70076;DHT22;63241;51.056;3.698;2022-09-21T08:52:45;44.40;17.60
70076;DHT22;63241;51.056;3.698;2022-09-21T08:55:33;44.40;16.60
70076;DHT22;63241;51.056;3.698;2022-09-21T08:58:22;44.20;17.50
70076;DHT22;63241;51.056;3.698;2022-09-21T09:01:33;44.00;17.50
70076;DHT22;63241;51.056;3.698;2022-09-21T09:10:40;42.90;18.50
70076;DHT22;63241;51.056;3.698;2022-09-21T09:13:58;42.30;18.40
70076;DHT22;63241;51.056;3.698;2022-09-21T09:23:12;41.50;18.60
70076;DHT22;63241;51.056;3.698;2022-09-21T09:26:09;41.00;19.50
70076;DHT22;63241;51.056;3.698;2022-09-21T09:28:58;40.30;19.40
70076;DHT22;63241;51.056;3.698;2022-09-21T09:31:45;40.50;18.90
70076;DHT22;63241;51.056;3.698;2022-09-21T09:34:37;40.20;20.00
70076;DHT22;63241;51.056;3.698;2022-09-21T09:37:26;39.60;19.50
70076;DHT22;63241;51.056;3.698;2022-09-21T09:43:43;40.00;20.20
70076;DHT22;63241;51.056;3.698;2022-09-21T09:46:48;40.30;19.90
70076;DHT22;63241;51.056;3.698;2022-09-21T09:50:03;39.50;20.00
70076;DHT22;63241;51.056;3.698;2022-09-21T09:52:51;39.80;20.70
70076;DHT22;63241;51.056;3.698;2022-09-21T09:55:42;39.50;20.10
70076;DHT22;63241;51.056;3.698;2022-09-21T09:58:55;39.70;20.10
70076;DHT22;63241;51.056;3.698;2022-09-21T10:01:43;40.10;19.70
70076;DHT22;63241;51.056;3.698;2022-09-21T10:04:35;39.70;19.30
70076;DHT22;63241;51.056;3.698;2022-09-21T10:07:40;39.40;20.60
70076;DHT22;63241;51.056;3.698;2022-09-21T10:10:35;39.00;20.00
70076;DHT22;63241;51.056;3.698;2022-09-21T10:13:33;39.20;20.50
70076;DHT22;63241;51.056;3.698;2022-09-21T10:16:22;38.80;20.80
70076;DHT22;63241;51.056;3.698;2022-09-21T10:19:25;38.70;20.10
70076;DHT22;63241;51.056;3.698;2022-09-21T10:26:07;38.70;20.70
70076;DHT22;63241;51.056;3.698;2022-09-21T10:28:58;38.90;20.60
70076;DHT22;63241;51.056;3.698;2022-09-21T10:32:00;39.00;20.60
70076;DHT22;63241;51.056;3.698;2022-09-21T10:38:17;38.80;20.20
70076;DHT22;63241;51.056;3.698;2022-09-21T10:41:06;38.70;20.30
70076;DHT22;63241;51.056;3.698;2022-09-21T10:43:53;37.90;20.80
70076;DHT22;63241;51.056;3.698;2022-09-21T10:46:41;38.10;21.00
70076;DHT22;63241;51.056;3.698;2022-09-21T10:49:21;38.00;20.10
70076;DHT22;63241;51.056;3.698;2022-09-21T10:52:08;38.70;20.50
70076;DHT22;63241;51.056;3.698;2022-09-21T10:54:56;39.10;20.50
70076;DHT22;63241;51.056;3.698;2022-09-21T10:57:45;39.30;20.10
70076;DHT22;63241;51.056;3.698;2022-09-21T11:00:42;39.20;19.70
70076;DHT22;63241;51.056;3.698;2022-09-21T11:06:33;39.20;20.30
70076;DHT22;63241;51.056;3.698;2022-09-21T11:09:40;39.10;19.00
70076;DHT22;63241;51.056;3.698;2022-09-21T11:21:53;39.70;18.60
70076;DHT22;63241;51.056;3.698;2022-09-21T11:27:53;38.10;19.50
70076;DHT22;63241;51.056;3.698;2022-09-21T11:30:47;36.20;20.70
70076;DHT22;63241;51.056;3.698;2022-09-21T11:48:54;30.20;27.70
70076;DHT22;63241;51.056;3.698;2022-09-21T11:55:00;32.20;25.10
70076;DHT22;63241;51.056;3.698;2022-09-21T11:57:53;32.20;24.00
70076;DHT22;63241;51.056;3.698;2022-09-21T12:01:02;31.30;25.40
70076;DHT22;63241;51.056;3.698;2022-09-21T12:07:17;31.90;25.30
70076;DHT22;63241;51.056;3.698;2022-09-21T12:12:53;30.90;26.00
70076;DHT22;63241;51.056;3.698;2022-09-21T12:15:54;30.40;26.30
70076;DHT22;63241;51.056;3.698;2022-09-21T12:18:55;29.80;27.30
70076;DHT22;63241;51.056;3.698;2022-09-21T12:24:28;29.10;28.40
70076;DHT22;63241;51.056;3.698;2022-09-21T12:27:37;29.00;28.60
70076;DHT22;63241;51.056;3.698;2022-09-21T12:30:24;28.70;28.60
70076;DHT22;63241;51.056;3.698;2022-09-21T12:33:22;28.20;28.90
70076;DHT22;63241;51.056;3.698;2022-09-21T12:36:24;27.60;30.00
70076;DHT22;63241;51.056;3.698;2022-09-21T12:39:22;26.90;31.50
70076;DHT22;63241;51.056;3.698;2022-09-21T12:42:25;26.40;32.10
70076;DHT22;63241;51.056;3.698;2022-09-21T12:48:08;25.50;34.00
70076;DHT22;63241;51.056;3.698;2022-09-21T12:51:09;25.20;34.90
70076;DHT22;63241;51.056;3.698;2022-09-21T12:53:47;25.40;35.10
70076;DHT22;63241;51.056;3.698;2022-09-21T12:56:42;26.60;34.00
70076;DHT22;63241;51.056;3.698;2022-09-21T12:59:39;28.00;32.00
70076;DHT22;63241;51.056;3.698;2022-09-21T13:05:35;30.20;28.90
70076;DHT22;63241;51.056;3.698;2022-09-21T13:08:30;29.80;28.10
70076;DHT22;63241;51.056;3.698;2022-09-21T13:11:19;28.60;28.80
70076;DHT22;63241;51.056;3.698;2022-09-21T13:14:09;27.10;30.50
70076;DHT22;63241;51.056;3.698;2022-09-21T13:20:39;25.40;32.70
70076;DHT22;63241;51.056;3.698;2022-09-21T13:23:38;24.90;34.10
70076;DHT22;63241;51.056;3.698;2022-09-21T13:26:35;24.40;34.80
70076;DHT22;63241;51.056;3.698;2022-09-21T13:29:30;24.60;36.00
70076;DHT22;63241;51.056;3.698;2022-09-21T13:32:51;25.90;35.50
70076;DHT22;63241;51.056;3.698;2022-09-21T13:36:01;27.30;31.80
70076;DHT22;63241;51.056;3.698;2022-09-21T13:39:11;27.80;28.90
70076;DHT22;63241;51.056;3.698;2022-09-21T13:41:49;27.50;30.30
70076;DHT22;63241;51.056;3.698;2022-09-21T13:44:40;26.80;31.60
70076;DHT22;63241;51.056;3.698;2022-09-21T13:47:30;26.30;32.90
70076;DHT22;63241;51.056;3.698;2022-09-21T13:50:28;26.00;32.90
70076;DHT22;63241;51.056;3.698;2022-09-21T13:53:30;25.40;34.10
70076;DHT22;63241;51.056;3.698;2022-09-21T13:56:20;24.90;34.50
70076;DHT22;63241;51.056;3.698;2022-09-21T14:01:35;23.70;36.60
70076;DHT22;63241;51.056;3.698;2022-09-21T14:04:30;23.50;38.20
70076;DHT22;63241;51.056;3.698;2022-09-21T14:07:19;23.40;39.10
70076;DHT22;63241;51.056;3.698;2022-09-21T14:10:15;23.90;38.40
70076;DHT22;63241;51.056;3.698;2022-09-21T14:12:59;25.10;37.60
70076;DHT22;63241;51.056;3.698;2022-09-21T14:15:48;26.40;35.30
70076;DHT22;63241;51.056;3.698;2022-09-21T14:18:36;27.70;34.40
70076;DHT22;63241;51.056;3.698;2022-09-21T14:21:24;28.40;30.90
70076;DHT22;63241;51.056;3.698;2022-09-21T14:24:20;28.80;30.10
70076;DHT22;63241;51.056;3.698;2022-09-21T14:30:24;27.50;30.00
70076;DHT22;63241;51.056;3.698;2022-09-21T14:33:27;26.70;31.30
70076;DHT22;63241;51.056;3.698;2022-09-21T14:36:31;26.00;31.50
70076;DHT22;63241;51.056;3.698;2022-09-21T14:39:23;25.30;33.00
70076;DHT22;63241;51.056;3.698;2022-09-21T14:42:18;24.60;36.00
70076;DHT22;63241;51.056;3.698;2022-09-21T14:45:33;23.90;36.70
70076;DHT22;63241;51.056;3.698;2022-09-21T14:54:31;22.40;39.50
70076;DHT22;63241;51.056;3.698;2022-09-21T14:57:31;22.20;40.50
70076;DHT22;63241;51.056;3.698;2022-09-21T15:00:23;21.70;41.60
70076;DHT22;63241;51.056;3.698;2022-09-21T15:03:42;21.50;42.50
70076;DHT22;63241;51.056;3.698;2022-09-21T15:06:36;21.50;42.00
70076;DHT22;63241;51.056;3.698;2022-09-21T15:16:40;22.00;41.00
70076;DHT22;63241;51.056;3.698;2022-09-21T15:19:34;22.00;41.70
70076;DHT22;63241;51.056;3.698;2022-09-21T15:22:21;21.80;40.60
70076;DHT22;63241;51.056;3.698;2022-09-21T15:24:57;21.50;42.50
70076;DHT22;63241;51.056;3.698;2022-09-21T15:27:45;21.30;42.30
70076;DHT22;63241;51.056;3.698;2022-09-21T15:30:40;21.10;43.00
70076;DHT22;63241;51.056;3.698;2022-09-21T15:33:27;20.80;43.30
70076;DHT22;63241;51.056;3.698;2022-09-21T15:36:23;20.50;41.90
70076;DHT22;63241;51.056;3.698;2022-09-21T15:39:26;20.20;44.70
70076;DHT22;63241;51.056;3.698;2022-09-21T15:42:16;20.00;44.80
70076;DHT22;63241;51.056;3.698;2022-09-21T15:45:17;19.80;45.80
70076;DHT22;63241;51.056;3.698;2022-09-21T15:48:09;19.70;46.50
70076;DHT22;63241;51.056;3.698;2022-09-21T15:51:16;19.60;46.60
70076;DHT22;63241;51.056;3.698;2022-09-21T15:54:06;19.50;47.40
70076;DHT22;63241;51.056;3.698;2022-09-21T15:56:53;19.50;47.50
70076;DHT22;63241;51.056;3.698;2022-09-21T15:59:43;19.50;47.90
70076;DHT22;63241;51.056;3.698;2022-09-21T16:02:36;19.50;49.10
70076;DHT22;63241;51.056;3.698;2022-09-21T16:05:00;19.60;48.50
70076;DHT22;63241;51.056;3.698;2022-09-21T16:07:50;19.70;48.90
70076;DHT22;63241;51.056;3.698;2022-09-21T16:10:41;19.80;47.80
70076;DHT22;63241;51.056;3.698;2022-09-21T16:13:30;19.90;46.60
70076;DHT22;63241;51.056;3.698;2022-09-21T16:17:25;19.90;45.90
70076;DHT22;63241;51.056;3.698;2022-09-21T16:22:47;20.10;46.80
70076;DHT22;63241;51.056;3.698;2022-09-21T16:25:38;20.10;46.90
70076;DHT22;63241;51.056;3.698;2022-09-21T16:31:36;19.70;46.50
70076;DHT22;63241;51.056;3.698;2022-09-21T16:34:33;19.50;46.70
70076;DHT22;63241;51.056;3.698;2022-09-21T16:37:26;19.20;45.80
70076;DHT22;63241;51.056;3.698;2022-09-21T16:40:14;18.90;45.80
70076;DHT22;63241;51.056;3.698;2022-09-21T16:43:03;18.70;46.70
70076;DHT22;63241;51.056;3.698;2022-09-21T16:45:51;18.40;47.80
70076;DHT22;63241;51.056;3.698;2022-09-21T16:48:39;18.30;48.70
70076;DHT22;63241;51.056;3.698;2022-09-21T16:51:27;18.20;48.80
70076;DHT22;63241;51.056;3.698;2022-09-21T16:54:19;18.00;49.50
70076;DHT22;63241;51.056;3.698;2022-09-21T16:57:10;17.80;49.80
70076;DHT22;63241;51.056;3.698;2022-09-21T16:59:59;17.70;50.20
70076;DHT22;63241;51.056;3.698;2022-09-21T17:02:48;17.60;50.80
70076;DHT22;63241;51.056;3.698;2022-09-21T17:05:37;17.60;50.90
70076;DHT22;63241;51.056;3.698;2022-09-21T17:08:25;17.40;51.50
70076;DHT22;63241;51.056;3.698;2022-09-21T17:11:16;17.30;52.60
70076;DHT22;63241;51.056;3.698;2022-09-21T17:14:03;17.30;53.50
70076;DHT22;63241;51.056;3.698;2022-09-21T17:16:55;17.20;51.20
70076;DHT22;63241;51.056;3.698;2022-09-21T17:19:43;17.10;52.60
70076;DHT22;63241;51.056;3.698;2022-09-21T17:22:32;17.00;53.20
70076;DHT22;63241;51.056;3.698;2022-09-21T17:25:20;16.90;53.60
70076;DHT22;63241;51.056;3.698;2022-09-21T17:28:17;16.80;53.50
70076;DHT22;63241;51.056;3.698;2022-09-21T17:31:07;16.70;54.10
70076;DHT22;63241;51.056;3.698;2022-09-21T17:33:55;16.60;54.40
70076;DHT22;63241;51.056;3.698;2022-09-21T17:36:55;16.50;54.50
70076;DHT22;63241;51.056;3.698;2022-09-21T17:39:48;16.40;55.40
70076;DHT22;63241;51.056;3.698;2022-09-21T17:42:38;16.30;55.70
70076;DHT22;63241;51.056;3.698;2022-09-21T17:45:42;16.10;56.00
70076;DHT22;63241;51.056;3.698;2022-09-21T17:48:28;16.00;56.00
70076;DHT22;63241;51.056;3.698;2022-09-21T17:54:07;15.80;56.90
70076;DHT22;63241;51.056;3.698;2022-09-21T17:56:57;15.70;56.70
70076;DHT22;63241;51.056;3.698;2022-09-21T17:59:49;15.60;55.80
70076;DHT22;63241;51.056;3.698;2022-09-21T18:02:36;15.50;58.40
70076;DHT22;63241;51.056;3.698;2022-09-21T18:05:26;15.40;58.90
70076;DHT22;63241;51.056;3.698;2022-09-21T18:08:14;15.30;59.20
70076;DHT22;63241;51.056;3.698;2022-09-21T18:14:33;15.10;60.20
70076;DHT22;63241;51.056;3.698;2022-09-21T18:26:55;14.80;60.70
70076;DHT22;63241;51.056;3.698;2022-09-21T18:29:43;14.60;60.90
70076;DHT22;63241;51.056;3.698;2022-09-21T18:45:17;14.20;64.60
70076;DHT22;63241;51.056;3.698;2022-09-21T18:48:34;14.20;65.80
70076;DHT22;63241;51.056;3.698;2022-09-21T18:51:33;14.10;65.80
70076;DHT22;63241;51.056;3.698;2022-09-21T18:54:22;14.00;65.90
70076;DHT22;63241;51.056;3.698;2022-09-21T18:57:13;13.90;65.60
70076;DHT22;63241;51.056;3.698;2022-09-21T19:00:04;13.90;65.60
70076;DHT22;63241;51.056;3.698;2022-09-21T19:02:52;13.80;65.60
70076;DHT22;63241;51.056;3.698;2022-09-21T19:05:51;13.70;66.10
70076;DHT22;63241;51.056;3.698;2022-09-21T19:29:52;13.30;70.40
70076;DHT22;63241;51.056;3.698;2022-09-21T19:32:47;13.20;69.90
70076;DHT22;63241;51.056;3.698;2022-09-21T19:35:36;13.20;69.60
70076;DHT22;63241;51.056;3.698;2022-09-21T19:38:28;13.10;69.60
70076;DHT22;63241;51.056;3.698;2022-09-21T19:41:32;13.10;69.80
70076;DHT22;63241;51.056;3.698;2022-09-21T19:44:53;13.00;69.90
70076;DHT22;63241;51.056;3.698;2022-09-21T19:47:50;13.00;70.30
70076;DHT22;63241;51.056;3.698;2022-09-21T19:50:54;12.90;70.40
70076;DHT22;63241;51.056;3.698;2022-09-21T19:53:42;12.80;71.50
70076;DHT22;63241;51.056;3.698;2022-09-21T19:56:48;12.80;71.70
70076;DHT22;63241;51.056;3.698;2022-09-21T20:00:18;12.70;70.30
70076;DHT22;63241;51.056;3.698;2022-09-21T20:03:15;12.60;72.20
70076;DHT22;63241;51.056;3.698;2022-09-21T20:06:15;12.60;72.30
70076;DHT22;63241;51.056;3.698;2022-09-21T20:09:10;12.60;72.30
70076;DHT22;63241;51.056;3.698;2022-09-21T20:12:12;12.50;72.60
70076;DHT22;63241;51.056;3.698;2022-09-21T20:22:12;13.60;72.30
70076;DHT22;63241;51.056;3.698;2022-09-21T20:28:47;13.20;70.80
70076;DHT22;63241;51.056;3.698;2022-09-21T20:31:25;12.90;71.40
70076;DHT22;63241;51.056;3.698;2022-09-21T20:37:23;12.70;72.40
70076;DHT22;63241;51.056;3.698;2022-09-21T20:40:13;12.60;73.20
70076;DHT22;63241;51.056;3.698;2022-09-21T20:43:02;12.50;74.00
70076;DHT22;63241;51.056;3.698;2022-09-21T20:45:51;12.40;74.50
70076;DHT22;63241;51.056;3.698;2022-09-21T20:48:39;12.30;75.10
70076;DHT22;63241;51.056;3.698;2022-09-21T20:51:30;12.30;76.10
70076;DHT22;63241;51.056;3.698;2022-09-21T20:57:17;12.20;76.90
70076;DHT22;63241;51.056;3.698;2022-09-21T21:00:11;12.10;77.20
70076;DHT22;63241;51.056;3.698;2022-09-21T21:05:50;12.10;79.80
70076;DHT22;63241;51.056;3.698;2022-09-21T21:08:39;12.10;80.20
70076;DHT22;63241;51.056;3.698;2022-09-21T21:11:33;12.10;79.80
70076;DHT22;63241;51.056;3.698;2022-09-21T21:14:20;12.10;79.30
70076;DHT22;63241;51.056;3.698;2022-09-21T21:17:07;12.00;79.30
70076;DHT22;63241;51.056;3.698;2022-09-21T21:19:55;12.10;80.40
70076;DHT22;63241;51.056;3.698;2022-09-21T21:22:47;12.00;80.90
70076;DHT22;63241;51.056;3.698;2022-09-21T21:25:35;12.00;80.60
70076;DHT22;63241;51.056;3.698;2022-09-21T21:28:28;12.00;80.70
70076;DHT22;63241;51.056;3.698;2022-09-21T21:31:17;11.90;81.20
70076;DHT22;63241;51.056;3.698;2022-09-21T21:34:10;11.80;82.40
70076;DHT22;63241;51.056;3.698;2022-09-21T21:36:56;11.80;83.20
70076;DHT22;63241;51.056;3.698;2022-09-21T21:39:52;11.80;82.60
70076;DHT22;63241;51.056;3.698;2022-09-21T21:42:41;11.80;83.30